Terminal Aerodrome Forecast
Issued by NWS

Home | Current Version | Previous Version | Text Only | Print | Product List | Glossary On
Versions: 1 2 3 4 5 6 7 8 9 10 11 12 13 14 15 16 17 18 19 20 21 22 23 24 25 26 27
000
FTPA31 PHFO 042300 RRA
TAFKOA
TAF
PHKO 042341Z 0500/0524 02016G25KT 6SM -RA SCT015 BKN035 OVC100
     FM050300 03020G30KT P6SM VCSH SCT015 BKN035 BKN100
     FM050900 05010KT P6SM VCSH SCT015 BKN035 BKN100
     FM051800 35012G18KT P6SM VCSH SCT020 BKN035=

USA.gov is the U.S. government's official web portal to all federal, state and local government web resources and services.